METAR Data
IDs: Format: Raw Decoded Include TAF

Data at: 0622 UTC 11 Dec 2018

PANC 110553Z 36007KT 10SM BKN095 OVC160 M02/M07 A2859 RMK AO2 SLP684 4/002 T10221067 11022 21033 56035
PANC 110453Z 36010KT 10SM FEW095 OVC160 M02/M07 A2862 RMK AO2 SLP693 T10221067
PANC 110353Z 01009KT 10SM SCT110 OVC200 M03/M07 A2865 RMK AO2 SLP703 T10281067
PANC 110253Z 36008KT 10SM BKN110 BKN230 M03/M07 A2869 RMK AO2 SLP719 T10281067 56045
PANC 110153Z 02004KT 10SM FEW070 SCT095 BKN230 M03/M07 A2873 RMK AO2 SLP732 T10281067
PANC 110053Z 36007KT 10SM FEW070 BKN095 BKN200 M03/M07 A2878 RMK AO2 SLP747 ACSL DSNT S T10281067
PANC 102353Z 01008KT 10SM FEW070 BKN095 OVC120 M03/M07 A2883 RMK AO2 SLP764 VIRGA W 4/002 T10281067 11028 21039 58033
PANC 102253Z 35012KT 10SM FEW070 BKN100 OVC200 M03/M07 A2886 RMK AO2 SLP776 VIRGA ALQDS T10281067
PANC 102153Z 36010KT 10SM FEW100 BKN200 M03/M07 A2889 RMK AO2 SLP785 T10331072
PANC 102053Z 36008KT 10SM SCT100 BKN200 M03/M07 A2892 RMK AO2 SLP796 T10331072 58022
PANC 101953Z 36005KT 10SM FEW020 BKN110 M03/M07 A2894 RMK AO2 SLP804 T10331072
PANC 101853Z 36008KT 10SM FEW020 BKN110 M04/M07 A2897 RMK AO2 SLP812 T10391072
PANC 101753Z 36006KT 10SM FEW020 SCT100 M04/M07 A2899 RMK AO2 SLP818 4/002 T10391072 11039 21044 58016
PANC 101653Z 36007KT 10SM FEW020 FEW090 SCT100 M04/M07 A2900 RMK AO2 SLP824 T10391072
PANC 101553Z 36010KT 10SM FEW020 FEW090 SCT100 M04/M07 A2902 RMK AO2 SLP829 T10391072
PANC 101453Z 36007KT 10SM FEW075 OVC100 M04/M07 A2903 RMK AO2 SLP834 T10391072 56019
PANC 101353Z 36012KT 10SM FEW065 BKN085 OVC110 M04/M07 A2904 RMK AO2 SLP838 T10391072
PANC 101253Z 35008KT 10SM FEW060 OVC100 M04/M08 A2907 RMK AO2 SLP846 T10441078
PANC 101153Z 35007KT 10SM FEW060 BKN110 M04/M07 A2909 RMK AO2 SLP851 4/002 60000 T10441072 11028 21044 57013
PANC 101053Z 33009KT 10SM FEW048 BKN110 OVC140 M04/M07 A2910 RMK AO2 SNE36 SLP857 P0000 T10441072
PANC 100953Z 34006KT 10SM -SN SCT048 BKN070 OVC110 M04/M07 A2911 RMK AO2 SNB50 SLP858 P0000 T10391072
PANC 100853Z 35006KT 10SM SCT060 BKN090 BKN110 OVC140 M04/M07 A2912 RMK AO2 SLP864 T10391072 400001044 55001
PANC 100753Z 35004KT 10SM SCT080 OVC140 M04/M08 A2912 RMK AO2 SLP863 T10391078
PANC 100653Z 35006KT 10SM FEW060 OVC075 M04/M07 A2912 RMK AO2 SLP864 T10391072
PANC 100553Z 34005KT 10SM BKN095 OVC120 M03/M06 A2913 RMK AO2 SLP865 4/002 T10281061 11006 21044 53001
PANC 100453Z 03010KT 10SM SCT095 OVC140 M02/M05 A2912 RMK AO2 SLP862 T10221050
PANC 100353Z 00000KT 10SM BKN140 OVC230 M03/M05 A2912 RMK AO2 SLP863 T10281050
PANC 100253Z 09003KT 10SM FEW140 BKN230 M03/M07 A2913 RMK AO2 SLP865 T10331072 56008
PANC 100153Z 32003KT 10SM FEW040 BKN230 M04/M08 A2913 RMK AO2 SLP867 T10391083
PANC 100053Z 09003KT 10SM FEW040 FEW140 SCT250 M03/M08 A2914 RMK AO2 SLP870 T10281083
PANC 092353Z 14009KT 10SM FEW040 SCT140 M01/M06 A2915 RMK AO2 SLP873 4/002 T10061061 10000 21011 50002
PANC 092253Z 15008KT 10SM FEW040 SCT120 00/M07 A2916 RMK AO2 SLP875 T00001072
PANC 092153Z 14009KT 10SM SCT033 00/M08 A2915 RMK AO2 SLP873 T00001078
PANC 092053Z 15005KT 10SM SCT033 SCT060 00/M07 A2914 RMK AO2 SLP870 T00001067 51006
PANC 091953Z 17011G20KT 10SM FEW031 SCT060 M01/M06 A2914 RMK AO2 PK WND 19026/1915 SLP869 T10061061
PANC 091853Z 19013G22KT 10SM SCT042 BKN120 M01/M07 A2913 RMK AO2 SLP866 T10061067